createdAt,value
2022-08-21T00:01:11.581Z,25.53
2022-08-21T00:02:28.306Z,25.37
2022-08-21T00:03:44.708Z,25.63
2022-08-21T00:05:01.111Z,25.58
2022-08-21T00:06:17.501Z,25.46
2022-08-21T00:07:33.895Z,25.88
2022-08-21T00:08:50.561Z,25.77
2022-08-21T00:10:06.924Z,25.96
2022-08-21T00:11:23.445Z,25.93
2022-08-21T00:12:41.847Z,26.26
2022-08-21T00:13:58.243Z,25.92
2022-08-21T00:15:14.925Z,26.05
2022-08-21T00:16:32.293Z,25.97
2022-08-21T00:17:50.619Z,26.00
2022-08-21T00:19:08.947Z,25.93
2022-08-21T00:20:25.349Z,25.93
2022-08-21T00:21:44.466Z,26.55
2022-08-21T00:23:01.178Z,25.99
2022-08-21T00:24:17.569Z,26.87
2022-08-21T00:25:35.932Z,27.14
2022-08-21T00:26:52.312Z,27.06
2022-08-21T00:28:08.972Z,26.62
2022-08-21T00:29:25.351Z,26.85
2022-08-21T00:30:41.784Z,27.15
2022-08-21T00:31:58.154Z,27.42
2022-08-21T00:33:14.523Z,27.58
2022-08-21T00:34:31.204Z,27.58
2022-08-21T00:35:47.613Z,27.16
2022-08-21T00:37:05.986Z,27.25
2022-08-21T00:38:22.386Z,27.42
2022-08-21T00:39:40.798Z,27.73
2022-08-21T00:40:57.437Z,27.38
2022-08-21T00:42:18.048Z,27.79
2022-08-21T00:43:34.419Z,27.62
2022-08-21T00:44:50.809Z,27.72
2022-08-21T00:46:07.186Z,27.83
2022-08-21T00:47:25.893Z,27.60
2022-08-21T00:48:42.260Z,27.64
2022-08-21T00:49:58.651Z,27.95
2022-08-21T00:51:15.027Z,28.16
2022-08-21T00:52:31.545Z,27.89
2022-08-21T00:53:53.574Z,28.01
2022-08-21T00:55:09.520Z,28.28
2022-08-21T00:56:26.303Z,28.01
2022-08-21T00:57:42.873Z,28.20
2022-08-21T00:58:59.235Z,28.11
2022-08-21T01:00:16.936Z,28.08
2022-08-21T01:01:33.356Z,28.12
2022-08-21T01:02:51.717Z,28.37
2022-08-21T01:04:10.046Z,28.34
2022-08-21T01:05:26.436Z,27.89
2022-08-21T01:06:43.089Z,28.47
2022-08-21T01:07:59.510Z,28.22
2022-08-21T01:09:15.929Z,28.52
2022-08-21T01:10:34.270Z,28.67
2022-08-21T01:11:50.680Z,28.50
2022-08-21T01:13:07.422Z,28.20
2022-08-21T01:14:23.792Z,28.09
2022-08-21T01:15:42.142Z,28.36
2022-08-21T01:16:58.553Z,28.42
2022-08-21T01:18:14.943Z,28.56
2022-08-21T01:19:31.603Z,28.23
2022-08-21T01:20:49.945Z,28.22
2022-08-21T01:22:07.343Z,28.13
2022-08-21T01:23:25.676Z,28.44
2022-08-21T01:24:42.048Z,28.57
2022-08-21T01:25:58.707Z,28.34
2022-08-21T01:27:17.077Z,28.76
2022-08-21T01:28:35.418Z,28.91
2022-08-21T01:29:51.789Z,28.69
2022-08-21T01:31:08.293Z,28.70
2022-08-21T01:32:28.859Z,28.75
2022-08-21T01:33:45.272Z,28.54
2022-08-21T01:35:02.721Z,28.67
2022-08-21T01:36:21.121Z,29.07
2022-08-21T01:37:37.533Z,29.09
2022-08-21T01:38:56.223Z,29.05
2022-08-21T01:40:12.638Z,29.03
2022-08-21T01:41:31.006Z,28.79
2022-08-21T01:42:47.409Z,28.63
2022-08-21T01:44:03.866Z,28.10
2022-08-21T01:45:20.557Z,28.13
2022-08-21T01:46:38.898Z,28.53
2022-08-21T01:47:55.267Z,28.66
2022-08-21T01:49:11.655Z,28.65
2022-08-21T01:50:28.058Z,28.48
2022-08-21T01:51:44.749Z,28.74
2022-08-21T01:53:03.078Z,28.21
2022-08-21T01:54:19.458Z,28.48
2022-08-21T01:55:35.859Z,28.29
2022-08-21T01:56:52.241Z,28.58
2022-08-21T01:58:08.902Z,28.74
2022-08-21T01:59:25.282Z,28.31
2022-08-21T02:00:41.717Z,28.52
2022-08-21T02:02:00.033Z,28.47
2022-08-21T02:03:23.257Z,28.60
2022-08-21T02:04:37.624Z,28.77
2022-08-21T02:05:54.034Z,28.85
2022-08-21T02:07:11.654Z,28.99
2022-08-21T02:08:28.058Z,28.83
2022-08-21T02:09:44.460Z,28.52
2022-08-21T02:11:01.111Z,28.97
2022-08-21T02:12:17.499Z,29.07
2022-08-21T02:13:35.868Z,29.62
2022-08-21T02:14:52.248Z,29.29
2022-08-21T02:16:08.622Z,29.26
2022-08-21T02:17:25.290Z,29.58
2022-08-21T02:18:41.689Z,29.54
2022-08-21T02:19:58.081Z,29.85
2022-08-21T02:21:14.450Z,29.86
2022-08-21T02:22:32.793Z,29.62
2022-08-21T02:23:49.527Z,29.75
2022-08-21T02:25:05.911Z,29.69
2022-08-21T02:26:22.274Z,29.75
2022-08-21T02:27:40.622Z,30.22
2022-08-21T02:28:57.026Z,30.14
2022-08-21T02:30:13.699Z,30.17
2022-08-21T02:31:32.085Z,29.79
2022-08-21T02:32:48.440Z,29.79
2022-08-21T02:34:04.887Z,30.21
2022-08-21T02:35:23.226Z,30.50
2022-08-21T02:36:41.868Z,30.27
2022-08-21T02:38:00.198Z,30.46
2022-08-21T02:39:16.582Z,30.27
2022-08-21T02:40:37.790Z,30.17
2022-08-21T02:42:01.061Z,30.20
2022-08-21T02:43:17.702Z,30.25
2022-08-21T02:44:34.451Z,30.07
2022-08-21T02:45:51.210Z,30.01
2022-08-21T02:47:07.632Z,30.09
2022-08-21T02:48:24.007Z,30.12
2022-08-21T02:49:42.086Z,30.07
2022-08-21T02:50:58.454Z,30.43
2022-08-21T02:52:14.877Z,30.13
2022-08-21T02:53:31.286Z,30.04
2022-08-21T02:54:49.627Z,30.23
2022-08-21T02:56:06.298Z,30.03
2022-08-21T02:57:22.690Z,30.26
2022-08-21T02:58:39.049Z,30.42
2022-08-21T02:59:55.437Z,30.25
2022-08-21T03:01:13.854Z,30.54
2022-08-21T03:02:30.509Z,30.76
2022-08-21T03:03:48.840Z,30.72
2022-08-21T03:05:05.231Z,30.51
2022-08-21T03:06:21.688Z,31.06
2022-08-21T03:07:38.062Z,31.02
2022-08-21T03:08:54.723Z,31.26
2022-08-21T03:10:13.093Z,30.95
2022-08-21T03:11:29.455Z,30.80
2022-08-21T03:12:45.845Z,31.36
2022-08-21T03:14:02.225Z,30.79
2022-08-21T03:15:20.857Z,31.07
2022-08-21T03:16:37.218Z,31.41
2022-08-21T03:17:53.607Z,30.93
2022-08-21T03:19:09.978Z,30.63
2022-08-21T03:20:26.396Z,30.68
2022-08-21T03:21:43.069Z,30.85
2022-08-21T03:22:59.789Z,30.69
2022-08-21T03:24:16.249Z,30.45
2022-08-21T03:25:40.394Z,30.86
2022-08-21T03:26:56.791Z,30.94
2022-08-21T03:28:13.912Z,30.82
2022-08-21T03:29:30.970Z,30.76
2022-08-21T03:30:49.361Z,30.62
2022-08-21T03:32:05.733Z,30.32
2022-08-21T03:33:23.537Z,30.44
2022-08-21T03:34:40.331Z,30.66
2022-08-21T03:35:56.714Z,30.75
2022-08-21T03:37:15.033Z,30.93
2022-08-21T03:38:31.455Z,31.09
2022-08-21T03:39:49.827Z,31.21
2022-08-21T03:41:06.489Z,31.15
2022-08-21T03:42:24.527Z,30.96
2022-08-21T03:43:42.907Z,30.75
2022-08-21T03:44:59.271Z,31.05
2022-08-21T03:46:15.650Z,30.90
2022-08-21T03:47:32.327Z,30.97
2022-08-21T03:48:48.735Z,30.58
2022-08-21T03:50:05.102Z,30.58
2022-08-21T03:51:21.480Z,30.47
2022-08-21T03:52:39.792Z,30.37
2022-08-21T03:53:56.483Z,30.52
2022-08-21T03:55:14.804Z,30.63
2022-08-21T03:56:31.183Z,30.51
2022-08-21T03:57:47.544Z,30.66
2022-08-21T03:59:04.914Z,30.80
2022-08-21T04:00:21.597Z,30.20
2022-08-21T04:01:38.015Z,30.34
2022-08-21T04:02:54.448Z,30.51
2022-08-21T04:04:10.875Z,30.21
2022-08-21T04:05:30.097Z,30.08
2022-08-21T04:06:46.768Z,30.12
2022-08-21T04:08:03.228Z,30.05
2022-08-21T04:09:19.623Z,30.21
2022-08-21T04:10:35.991Z,30.16
2022-08-21T04:11:53.331Z,30.08
2022-08-21T04:13:11.961Z,30.15
2022-08-21T04:14:28.341Z,30.41
2022-08-21T04:15:45.481Z,30.29
2022-08-21T04:17:01.853Z,30.28
2022-08-21T04:18:18.251Z,30.29
2022-08-21T04:19:34.914Z,30.39
2022-08-21T04:20:53.244Z,29.78
2022-08-21T04:22:09.635Z,29.79
2022-08-21T04:23:26.035Z,29.78
2022-08-21T04:24:43.367Z,29.58
2022-08-21T04:26:00.036Z,29.39
2022-08-21T04:27:16.415Z,29.27
2022-08-21T04:28:32.817Z,29.16
2022-08-21T04:29:49.206Z,29.16
2022-08-21T04:31:05.578Z,29.13
2022-08-21T04:32:23.188Z,29.31
2022-08-21T04:33:39.590Z,29.32
2022-08-21T04:34:55.982Z,29.12
2022-08-21T04:36:14.311Z,29.35
2022-08-21T04:37:30.729Z,29.13
2022-08-21T04:38:47.373Z,29.33
2022-08-21T04:40:05.909Z,28.95
2022-08-21T04:41:27.926Z,28.98
2022-08-21T04:42:43.655Z,29.19
2022-08-21T04:44:00.025Z,28.94
2022-08-21T04:45:16.718Z,28.85
2022-08-21T04:46:33.940Z,28.81
2022-08-21T04:47:52.355Z,29.18
2022-08-21T04:49:11.226Z,29.34
2022-08-21T04:50:27.636Z,28.99
2022-08-21T04:51:44.260Z,29.13
2022-08-21T04:53:00.683Z,29.14
2022-08-21T04:54:18.977Z,29.66
2022-08-21T04:55:37.348Z,29.99
2022-08-21T04:56:55.668Z,29.87
2022-08-21T04:58:12.319Z,29.51
2022-08-21T04:59:30.629Z,30.01
2022-08-21T05:00:48.992Z,29.48
2022-08-21T05:02:05.342Z,29.46
2022-08-21T05:03:23.672Z,29.26
2022-08-21T05:04:40.293Z,29.69
2022-08-21T05:05:58.645Z,29.46
2022-08-21T05:07:15.000Z,29.40
2022-08-21T05:08:31.372Z,29.25
2022-08-21T05:09:47.724Z,29.45
2022-08-21T05:11:04.404Z,28.93
2022-08-21T05:12:20.759Z,29.43
2022-08-21T05:13:39.085Z,29.24
2022-08-21T05:14:55.437Z,29.27
2022-08-21T05:16:11.849Z,29.18
2022-08-21T05:17:28.495Z,29.07
2022-08-21T05:18:46.847Z,29.02
2022-08-21T05:20:03.199Z,29.01
2022-08-21T05:21:19.569Z,28.82
2022-08-21T05:22:35.959Z,29.09
2022-08-21T05:23:52.619Z,28.64
2022-08-21T05:25:10.586Z,28.44
2022-08-21T05:26:27.214Z,28.31
2022-08-21T05:27:43.581Z,28.19
2022-08-21T05:28:59.974Z,28.40
2022-08-21T05:30:16.649Z,27.81
2022-08-21T05:31:35.013Z,27.96
2022-08-21T05:32:51.402Z,28.12
2022-08-21T05:34:07.735Z,28.08
2022-08-21T05:35:26.045Z,28.05
2022-08-21T05:36:42.744Z,27.86
2022-08-21T05:37:59.110Z,28.17
2022-08-21T05:39:15.489Z,28.09
2022-08-21T05:40:31.940Z,28.47
2022-08-21T05:41:48.316Z,28.51
2022-08-21T05:43:06.932Z,28.90
2022-08-21T05:44:25.260Z,28.75
2022-08-21T05:45:44.357Z,28.54
2022-08-21T05:47:00.880Z,28.71
2022-08-21T05:48:19.210Z,28.58
2022-08-21T05:49:35.861Z,28.65
2022-08-21T05:50:52.223Z,28.30
2022-08-21T05:52:08.592Z,28.64
2022-08-21T05:53:26.922Z,28.60
2022-08-21T05:54:43.295Z,28.71
2022-08-21T05:55:59.922Z,28.69
2022-08-21T05:57:18.244Z,28.74
2022-08-21T05:58:34.614Z,28.68
2022-08-21T05:59:52.954Z,28.31
2022-08-21T06:01:11.310Z,28.98
2022-08-21T06:02:27.967Z,28.70
2022-08-21T06:03:44.363Z,28.47
2022-08-21T06:05:00.718Z,28.65
2022-08-21T06:06:17.078Z,29.06
2022-08-21T06:07:35.409Z,28.98
2022-08-21T06:08:52.113Z,28.66
2022-08-21T06:10:08.482Z,29.02
2022-08-21T06:11:28.977Z,29.25
2022-08-21T06:12:45.490Z,29.37
2022-08-21T06:14:03.841Z,29.08
2022-08-21T06:15:20.515Z,28.86
2022-08-21T06:16:36.899Z,29.20
2022-08-21T06:17:55.227Z,28.70
2022-08-21T06:19:13.553Z,28.83
2022-08-21T06:20:31.884Z,28.79
2022-08-21T06:21:48.534Z,28.72
2022-08-21T06:23:06.884Z,28.93
2022-08-21T06:24:23.246Z,28.86
2022-08-21T06:25:40.567Z,28.63
2022-08-21T06:26:56.932Z,28.67
2022-08-21T06:28:15.566Z,28.52
2022-08-21T06:29:31.919Z,28.39
2022-08-21T06:30:55.099Z,28.58
2022-08-21T06:32:11.470Z,28.15
2022-08-21T06:33:32.707Z,28.79
2022-08-21T06:34:51.510Z,28.78
2022-08-21T06:36:07.880Z,28.66
2022-08-21T06:37:26.192Z,28.96
2022-08-21T06:38:42.598Z,28.96
2022-08-21T06:40:03.840Z,29.12
2022-08-21T06:41:24.224Z,29.41
2022-08-21T06:42:43.365Z,29.34
2022-08-21T06:44:00.167Z,29.31
2022-08-21T06:45:16.804Z,29.00
2022-08-21T06:46:35.126Z,29.39
2022-08-21T06:47:51.516Z,29.23
2022-08-21T06:49:09.848Z,29.34
2022-08-21T06:50:32.987Z,29.18
2022-08-21T06:51:49.668Z,29.40
2022-08-21T06:53:08.012Z,29.33
2022-08-21T06:54:24.379Z,29.36
2022-08-21T06:55:40.737Z,29.25
2022-08-21T06:56:59.071Z,29.52
2022-08-21T06:58:17.673Z,29.37
2022-08-21T06:59:34.056Z,29.09
2022-08-21T07:00:52.363Z,29.22
2022-08-21T07:02:08.743Z,29.12
2022-08-21T07:03:25.121Z,29.26
2022-08-21T07:04:42.693Z,28.99
2022-08-21T07:06:01.055Z,29.25
2022-08-21T07:07:17.454Z,29.01
2022-08-21T07:08:35.795Z,29.30
2022-08-21T07:09:52.147Z,29.63
2022-08-21T07:11:08.826Z,29.21
2022-08-21T07:12:27.167Z,29.14
2022-08-21T07:13:45.498Z,28.87
2022-08-21T07:15:01.858Z,28.68
2022-08-21T07:16:20.210Z,28.97
2022-08-21T07:17:36.852Z,28.66
2022-08-21T07:18:55.193Z,28.77
2022-08-21T07:20:11.550Z,28.84
2022-08-21T07:21:31.711Z,28.98
2022-08-21T07:22:50.012Z,28.59
2022-08-21T07:24:06.682Z,29.25
2022-08-21T07:25:25.013Z,29.13
2022-08-21T07:26:43.366Z,29.09
2022-08-21T07:27:59.722Z,29.24
2022-08-21T07:29:18.043Z,29.10
2022-08-21T07:30:34.713Z,29.14
2022-08-21T07:31:53.065Z,29.13
2022-08-21T07:33:11.376Z,28.81
2022-08-21T07:34:29.717Z,29.32
2022-08-21T07:35:48.030Z,29.21
2022-08-21T07:37:10.074Z,29.31
2022-08-21T07:38:28.530Z,29.07
2022-08-21T07:39:46.879Z,29.22
2022-08-21T07:41:05.269Z,29.57
2022-08-21T07:42:23.589Z,29.39
2022-08-21T07:43:45.958Z,29.11
2022-08-21T07:45:04.520Z,28.70
2022-08-21T07:46:22.862Z,28.89
2022-08-21T07:47:42.221Z,29.31
2022-08-21T07:48:59.503Z,29.07
2022-08-21T07:50:17.835Z,29.17
2022-08-21T07:51:36.250Z,28.74
2022-08-21T07:52:52.604Z,29.28
2022-08-21T07:54:10.915Z,29.14
2022-08-21T07:55:34.105Z,29.29
2022-08-21T07:56:52.436Z,29.41
2022-08-21T07:58:10.777Z,29.25
2022-08-21T07:59:27.136Z,29.00
2022-08-21T08:00:45.767Z,29.32
2022-08-21T08:02:04.078Z,29.33
2022-08-21T08:03:28.363Z,29.25
2022-08-21T08:04:50.767Z,29.24
2022-08-21T08:06:05.099Z,29.34
2022-08-21T08:07:21.759Z,29.40
2022-08-21T08:08:40.092Z,29.49
2022-08-21T08:09:56.461Z,29.31
2022-08-21T08:11:14.832Z,29.48
2022-08-21T08:12:33.142Z,29.44
2022-08-21T08:13:49.825Z,29.15
2022-08-21T08:15:08.136Z,29.15
2022-08-21T08:16:26.524Z,29.27
2022-08-21T08:17:42.885Z,29.51
2022-08-21T08:19:01.253Z,29.57
2022-08-21T08:20:19.857Z,29.67
2022-08-21T08:21:38.186Z,29.68
2022-08-21T08:22:56.497Z,29.98
2022-08-21T08:24:19.006Z,29.85
2022-08-21T08:25:38.050Z,29.85
2022-08-21T08:26:54.728Z,30.15
2022-08-21T08:28:16.852Z,30.32
2022-08-21T08:29:35.940Z,29.89
2022-08-21T08:30:54.281Z,30.04
2022-08-21T08:32:12.631Z,30.27
2022-08-21T08:33:29.271Z,30.13
2022-08-21T08:34:45.673Z,29.79
2022-08-21T08:36:07.932Z,30.07
2022-08-21T08:37:30.999Z,30.56
2022-08-21T08:38:47.805Z,30.09
2022-08-21T08:40:06.567Z,30.18
2022-08-21T08:41:30.696Z,30.17
2022-08-21T08:42:46.077Z,30.81
2022-08-21T08:44:04.409Z,30.64
2022-08-21T08:45:23.057Z,31.09
2022-08-21T08:46:41.368Z,30.73
2022-08-21T08:47:59.729Z,30.98
2022-08-21T08:49:18.040Z,31.00
2022-08-21T08:50:37.429Z,31.43
2022-08-21T08:51:54.440Z,31.22
2022-08-21T08:53:12.789Z,31.12
2022-08-21T08:54:31.102Z,30.66
2022-08-21T08:55:49.431Z,30.81
2022-08-21T08:57:07.742Z,30.57
2022-08-21T08:58:26.384Z,30.16
2022-08-21T08:59:44.695Z,30.55
2022-08-21T09:01:03.079Z,30.80
2022-08-21T09:02:21.426Z,30.29
2022-08-21T09:03:40.095Z,31.07
2022-08-21T09:04:58.706Z,31.35
2022-08-21T09:06:17.037Z,31.62
2022-08-21T09:07:33.418Z,31.61
2022-08-21T09:08:51.749Z,31.48
2022-08-21T09:10:10.056Z,31.44
2022-08-21T09:11:28.378Z,31.81
2022-08-21T09:12:45.709Z,31.45
2022-08-21T09:14:04.088Z,31.30
2022-08-21T09:15:22.401Z,31.87
2022-08-21T09:16:41.021Z,31.58
2022-08-21T09:17:59.323Z,31.61
2022-08-21T09:19:18.161Z,32.08
2022-08-21T09:20:41.317Z,31.97
2022-08-21T09:21:57.726Z,32.11
2022-08-21T09:23:16.325Z,32.57
2022-08-21T09:24:32.713Z,32.16
2022-08-21T09:25:51.029Z,32.29
2022-08-21T09:27:09.410Z,32.73
2022-08-21T09:28:25.764Z,32.95
2022-08-21T09:29:42.408Z,33.39
2022-08-21T09:30:58.795Z,32.40
2022-08-21T09:32:18.788Z,32.67
2022-08-21T09:33:37.220Z,32.51
2022-08-21T09:34:55.558Z,33.03
2022-08-21T09:36:14.170Z,32.35
2022-08-21T09:37:32.501Z,32.90
2022-08-21T09:38:48.859Z,33.09
2022-08-21T09:40:07.244Z,33.33
2022-08-21T09:41:25.563Z,32.87
2022-08-21T09:42:42.213Z,33.30
2022-08-21T09:43:58.573Z,33.05
2022-08-21T09:45:16.908Z,33.05
2022-08-21T09:46:35.229Z,33.15
2022-08-21T09:47:51.615Z,32.71
2022-08-21T09:49:13.392Z,33.27
2022-08-21T09:50:33.126Z,33.14
2022-08-21T09:51:51.468Z,33.09
2022-08-21T09:53:09.798Z,33.09
2022-08-21T09:54:26.431Z,33.09
2022-08-21T09:55:44.759Z,33.05
2022-08-21T09:57:03.091Z,33.45
2022-08-21T09:58:21.418Z,33.69
2022-08-21T09:59:38.050Z,33.14
2022-08-21T10:00:56.409Z,33.25
2022-08-21T10:02:14.742Z,34.18
2022-08-21T10:03:33.082Z,33.31
2022-08-21T10:04:49.442Z,33.51
2022-08-21T10:06:09.193Z,34.27
2022-08-21T10:07:27.743Z,34.06
2022-08-21T10:08:46.072Z,33.95
2022-08-21T10:10:04.375Z,34.35
2022-08-21T10:11:22.707Z,34.36
2022-08-21T10:12:41.307Z,33.78
2022-08-21T10:13:59.637Z,34.27
2022-08-21T10:15:17.947Z,34.73
2022-08-21T10:16:36.318Z,34.58
2022-08-21T10:17:52.668Z,34.54
2022-08-21T10:19:09.348Z,34.64
2022-08-21T10:20:25.709Z,34.33
2022-08-21T10:21:44.060Z,33.96
2022-08-21T10:23:02.893Z,34.38
2022-08-21T10:24:31.276Z,34.51
2022-08-21T10:25:56.404Z,34.49
2022-08-21T10:27:07.603Z,34.74
2022-08-21T10:28:25.912Z,34.59
2022-08-21T10:29:44.314Z,34.84
2022-08-21T10:31:00.933Z,34.55
2022-08-21T10:32:26.073Z,34.49
2022-08-21T10:33:40.464Z,34.64
2022-08-21T10:34:59.543Z,34.44
2022-08-21T10:36:17.866Z,34.67
2022-08-21T10:37:36.486Z,35.10
2022-08-21T10:39:12.068Z,34.96
2022-08-21T10:40:18.094Z,35.34
2022-08-21T10:41:36.400Z,34.90
2022-08-21T10:42:54.777Z,35.21
2022-08-21T10:44:13.430Z,35.26
2022-08-21T10:45:31.760Z,35.11
2022-08-21T10:46:49.050Z,35.54
2022-08-21T10:48:07.392Z,35.54
2022-08-21T10:49:25.721Z,35.61
2022-08-21T10:50:42.381Z,35.86
2022-08-21T10:52:00.685Z,35.99
2022-08-21T10:53:19.114Z,35.84
2022-08-21T10:54:37.424Z,35.86
2022-08-21T10:55:53.795Z,35.85
2022-08-21T10:57:12.416Z,36.03
2022-08-21T10:58:32.286Z,36.29
2022-08-21T10:59:50.078Z,36.09
2022-08-21T11:01:08.487Z,36.09
2022-08-21T11:02:26.798Z,36.18
2022-08-21T11:03:43.475Z,36.15
2022-08-21T11:05:01.788Z,35.72
2022-08-21T11:06:20.118Z,36.15
2022-08-21T11:07:38.450Z,36.44
2022-08-21T11:08:54.830Z,36.38
2022-08-21T11:10:11.794Z,37.22
2022-08-21T11:11:29.739Z,36.80
2022-08-21T11:12:51.830Z,36.81
2022-08-21T11:14:10.253Z,36.92
2022-08-21T11:15:29.702Z,36.38
2022-08-21T11:16:46.574Z,36.64
2022-08-21T11:18:04.927Z,36.78
2022-08-21T11:19:23.263Z,35.93
2022-08-21T11:20:41.576Z,36.06
2022-08-21T11:21:59.938Z,36.25
2022-08-21T11:23:18.568Z,35.73
2022-08-21T11:24:36.896Z,35.94
2022-08-21T11:25:55.207Z,36.49
2022-08-21T11:27:13.538Z,35.66
2022-08-21T11:28:31.879Z,36.44
2022-08-21T11:29:48.533Z,36.68
2022-08-21T11:31:06.844Z,36.49
2022-08-21T11:32:25.171Z,36.22
2022-08-21T11:33:43.602Z,36.48
2022-08-21T11:35:01.947Z,35.67
2022-08-21T11:36:18.592Z,35.79
2022-08-21T11:37:36.925Z,36.56
2022-08-21T11:38:55.257Z,36.84
2022-08-21T11:40:11.705Z,36.70
2022-08-21T11:41:30.034Z,36.56
2022-08-21T11:42:46.685Z,36.96
2022-08-21T11:44:05.044Z,36.66
2022-08-21T11:45:23.346Z,36.71
2022-08-21T11:46:46.515Z,36.83
2022-08-21T11:48:04.867Z,37.10
2022-08-21T11:49:23.478Z,37.72
2022-08-21T11:50:40.769Z,36.59
2022-08-21T11:51:57.162Z,36.63
2022-08-21T11:53:15.500Z,36.39
2022-08-21T11:54:31.870Z,36.48
2022-08-21T11:55:48.511Z,36.49
2022-08-21T11:57:06.842Z,37.17
2022-08-21T11:58:25.173Z,36.50
2022-08-21T11:59:43.501Z,36.79
2022-08-21T12:01:01.816Z,36.78
2022-08-21T12:02:18.501Z,36.21
2022-08-21T12:03:36.845Z,36.25
2022-08-21T12:04:55.216Z,36.17
2022-08-21T12:06:14.686Z,36.46
2022-08-21T12:07:37.866Z,36.42
2022-08-21T12:08:56.487Z,36.48
2022-08-21T12:10:14.847Z,36.58
2022-08-21T12:11:33.149Z,36.37
2022-08-21T12:12:51.522Z,36.07
2022-08-21T12:14:09.860Z,36.37
2022-08-21T12:15:26.539Z,35.34
2022-08-21T12:16:44.850Z,36.19
2022-08-21T12:18:03.163Z,36.63
2022-08-21T12:19:19.552Z,35.82
2022-08-21T12:20:37.881Z,36.20
2022-08-21T12:21:54.542Z,36.53
2022-08-21T12:23:13.199Z,37.02
2022-08-21T12:24:31.624Z,36.96
2022-08-21T12:25:49.964Z,36.75
2022-08-21T12:27:08.276Z,37.23
2022-08-21T12:28:26.965Z,36.97
2022-08-21T12:29:45.297Z,37.34
2022-08-21T12:31:03.629Z,36.90
2022-08-21T12:32:21.938Z,36.81
2022-08-21T12:33:40.469Z,36.82
2022-08-21T12:34:59.038Z,37.21
2022-08-21T12:36:17.368Z,36.93
2022-08-21T12:37:35.669Z,36.91
2022-08-21T12:38:54.029Z,37.83
2022-08-21T12:40:12.381Z,37.46
2022-08-21T12:41:29.013Z,37.27
2022-08-21T12:42:50.080Z,37.29
2022-08-21T12:44:08.554Z,37.17
2022-08-21T12:45:26.863Z,37.73
2022-08-21T12:46:45.193Z,37.73
2022-08-21T12:48:03.804Z,37.01
2022-08-21T12:49:24.532Z,36.82
2022-08-21T12:50:48.762Z,37.78
2022-08-21T12:52:05.547Z,37.14
2022-08-21T12:53:23.886Z,37.48
2022-08-21T12:54:42.226Z,37.50
2022-08-21T12:56:00.546Z,37.69
2022-08-21T12:57:18.868Z,37.56
2022-08-21T12:58:37.209Z,37.39
2022-08-21T12:59:53.869Z,37.31
2022-08-21T13:01:12.180Z,37.33
2022-08-21T13:02:30.510Z,37.15
2022-08-21T13:03:48.860Z,36.84
2022-08-21T13:05:12.020Z,36.82
2022-08-21T13:06:28.670Z,37.55
2022-08-21T13:07:47.762Z,37.29
2022-08-21T13:09:06.093Z,37.62
2022-08-21T13:10:24.423Z,37.39
2022-08-21T13:11:42.724Z,37.46
2022-08-21T13:13:01.365Z,37.60
2022-08-21T13:14:24.527Z,37.68
2022-08-21T13:15:47.437Z,37.79
2022-08-21T13:17:06.317Z,37.13
2022-08-21T13:18:26.447Z,37.63
2022-08-21T13:19:43.089Z,37.96
2022-08-21T13:21:01.419Z,37.97
2022-08-21T13:22:33.085Z,38.03
2022-08-21T13:23:43.009Z,37.21
2022-08-21T13:25:07.137Z,37.90
2022-08-21T13:26:26.152Z,38.13
2022-08-21T13:27:44.451Z,37.93
2022-08-21T13:29:00.872Z,36.78
2022-08-21T13:30:19.203Z,37.76
2022-08-21T13:31:35.873Z,37.88
2022-08-21T13:32:54.237Z,37.78
2022-08-21T13:34:10.626Z,38.24
2022-08-21T13:35:28.946Z,37.87
2022-08-21T13:36:47.317Z,38.72
2022-08-21T13:38:05.626Z,38.36
2022-08-21T13:39:23.960Z,38.43
2022-08-21T13:40:42.267Z,37.91
2022-08-21T13:42:00.638Z,38.29
2022-08-21T13:43:21.466Z,38.34
2022-08-21T13:44:39.780Z,37.87
2022-08-21T13:45:56.143Z,38.24
2022-08-21T13:47:14.490Z,38.02
2022-08-21T13:48:31.131Z,38.17
2022-08-21T13:49:49.461Z,38.33
2022-08-21T13:51:05.823Z,38.63
2022-08-21T13:52:24.183Z,38.52
2022-08-21T13:53:42.493Z,38.32
2022-08-21T13:55:01.144Z,38.28
2022-08-21T13:56:19.454Z,38.43
2022-08-21T13:57:37.825Z,37.67
2022-08-21T13:58:56.116Z,39.17
2022-08-21T14:00:14.446Z,38.43
2022-08-21T14:01:31.147Z,38.39
2022-08-21T14:02:49.507Z,38.78
2022-08-21T14:04:07.828Z,38.67
2022-08-21T14:05:26.159Z,38.35
2022-08-21T14:06:44.490Z,38.85
2022-08-21T14:08:04.024Z,38.71
2022-08-21T14:09:22.330Z,38.61
2022-08-21T14:10:40.661Z,38.41
2022-08-21T14:11:58.996Z,37.75
2022-08-21T14:13:17.333Z,38.60
2022-08-21T14:14:33.962Z,38.21
2022-08-21T14:15:52.304Z,38.40
2022-08-21T14:17:24.442Z,38.74
2022-08-21T14:18:31.844Z,38.81
2022-08-21T14:19:50.155Z,39.00
2022-08-21T14:21:06.806Z,38.53
2022-08-21T14:22:25.157Z,39.06
2022-08-21T14:23:43.487Z,38.73
2022-08-21T14:25:02.221Z,38.72
2022-08-21T14:26:20.508Z,38.83
2022-08-21T14:27:37.210Z,38.74
2022-08-21T14:28:55.551Z,38.97
2022-08-21T14:30:12.999Z,39.02
2022-08-21T14:31:32.166Z,38.93
2022-08-21T14:32:51.071Z,38.89
2022-08-21T14:34:19.287Z,38.81
2022-08-21T14:35:30.916Z,38.47
2022-08-21T14:36:50.401Z,38.96
2022-08-21T14:38:08.743Z,38.79
2022-08-21T14:39:27.082Z,38.61
2022-08-21T14:40:45.389Z,38.57
2022-08-21T14:42:03.726Z,38.81
2022-08-21T14:43:20.109Z,39.04
2022-08-21T14:44:38.435Z,38.96
2022-08-21T14:45:55.086Z,38.66
2022-08-21T14:47:11.475Z,38.37
2022-08-21T14:48:27.869Z,38.46
2022-08-21T14:49:46.198Z,38.60
2022-08-21T14:51:04.510Z,38.66
2022-08-21T14:52:21.163Z,38.68
2022-08-21T14:53:39.501Z,38.94
2022-08-21T14:54:57.831Z,38.96
2022-08-21T14:56:16.132Z,38.97
2022-08-21T14:57:34.524Z,38.54
2022-08-21T14:58:53.112Z,38.85
2022-08-21T15:00:10.436Z,39.08
2022-08-21T15:01:29.498Z,39.11
2022-08-21T15:02:47.832Z,39.04
2022-08-21T15:04:05.544Z,39.28
2022-08-21T15:05:26.835Z,39.18
2022-08-21T15:06:45.087Z,39.38
2022-08-21T15:08:03.466Z,39.49
2022-08-21T15:09:21.777Z,39.48
2022-08-21T15:10:57.012Z,39.45
2022-08-21T15:12:02.527Z,39.52
2022-08-21T15:13:18.946Z,39.64
2022-08-21T15:14:37.248Z,40.05
2022-08-21T15:15:54.549Z,39.76
2022-08-21T15:17:12.660Z,39.91
2022-08-21T15:18:31.030Z,39.40
2022-08-21T15:19:49.371Z,39.65
2022-08-21T15:21:05.760Z,39.84
2022-08-21T15:22:26.843Z,39.69
2022-08-21T15:23:43.759Z,39.48
2022-08-21T15:25:02.206Z,39.53
2022-08-21T15:26:20.533Z,39.47
2022-08-21T15:27:38.844Z,39.25
2022-08-21T15:28:57.475Z,39.40
2022-08-21T15:30:15.786Z,39.39
2022-08-21T15:31:33.596Z,39.35
2022-08-21T15:32:52.021Z,39.36
2022-08-21T15:34:10.347Z,39.17
2022-08-21T15:35:26.970Z,39.31
2022-08-21T15:36:45.333Z,38.86
2022-08-21T15:38:03.657Z,39.08
2022-08-21T15:39:21.969Z,39.22
2022-08-21T15:40:51.669Z,38.90
2022-08-21T15:42:11.101Z,39.21
2022-08-21T15:43:29.961Z,39.36
2022-08-21T15:44:48.802Z,39.58
2022-08-21T15:46:07.113Z,39.22
2022-08-21T15:47:25.744Z,39.52
2022-08-21T15:48:42.102Z,39.57
2022-08-21T15:50:00.424Z,39.52
2022-08-21T15:51:18.755Z,39.48
2022-08-21T15:52:37.084Z,40.06
2022-08-21T15:53:53.743Z,39.39
2022-08-21T15:55:12.068Z,39.45
2022-08-21T15:56:30.417Z,39.84
2022-08-21T15:57:56.803Z,39.55
2022-08-21T15:59:13.859Z,39.60
2022-08-21T16:00:30.509Z,39.70
2022-08-21T16:01:48.898Z,39.30
2022-08-21T16:03:07.230Z,39.31
2022-08-21T16:04:25.578Z,39.93
2022-08-21T16:05:43.913Z,39.96
2022-08-21T16:07:05.391Z,39.65
2022-08-21T16:08:23.742Z,39.43
2022-08-21T16:09:42.054Z,39.71
2022-08-21T16:11:00.433Z,39.45
2022-08-21T16:12:16.794Z,39.27
2022-08-21T16:13:35.384Z,39.49
2022-08-21T16:14:51.745Z,39.55
2022-08-21T16:16:10.116Z,39.61
2022-08-21T16:17:28.426Z,39.61
2022-08-21T16:18:44.798Z,39.90
2022-08-21T16:20:03.426Z,39.98
2022-08-21T16:21:21.818Z,40.03
2022-08-21T16:22:44.539Z,40.16
2022-08-21T16:24:03.289Z,40.23
2022-08-21T16:25:21.619Z,40.09
2022-08-21T16:26:41.450Z,40.20
2022-08-21T16:28:01.501Z,40.07
2022-08-21T16:29:20.048Z,40.08
2022-08-21T16:30:39.711Z,40.27
2022-08-21T16:31:58.014Z,40.66
2022-08-21T16:33:14.663Z,40.79
2022-08-21T16:34:31.022Z,40.52
2022-08-21T16:35:49.385Z,40.74
2022-08-21T16:37:07.778Z,41.08
2022-08-21T16:38:26.186Z,40.61
2022-08-21T16:39:43.818Z,40.61
2022-08-21T16:41:02.175Z,40.92
2022-08-21T16:42:22.787Z,41.00
2022-08-21T16:43:41.138Z,40.60